createdAt,value
2018-09-20T00:02:24.814Z,77.80
2018-09-20T00:04:53.471Z,78.20
2018-09-20T00:07:21.852Z,78.40
2018-09-20T00:09:50.339Z,78.50
2018-09-20T00:12:18.713Z,78.50
2018-09-20T00:14:47.182Z,78.70
2018-09-20T00:17:15.660Z,78.80
2018-09-20T00:19:44.128Z,78.90
2018-09-20T00:22:12.569Z,79.10
2018-09-20T00:24:41.052Z,79.00
2018-09-20T00:27:09.434Z,79.00
2018-09-20T00:29:37.928Z,79.10
2018-09-20T00:32:06.370Z,79.20
2018-09-20T00:34:34.788Z,79.20
2018-09-20T00:37:04.119Z,79.30
2018-09-20T00:39:33.448Z,79.50
2018-09-20T00:42:01.927Z,79.50
2018-09-20T00:44:30.339Z,79.80
2018-09-20T00:46:58.768Z,80.10
2018-09-20T00:49:27.184Z,80.30
2018-09-20T00:51:56.561Z,80.60
2018-09-20T00:54:25.675Z,80.60
2018-09-20T00:56:54.710Z,80.60
2018-09-20T00:59:23.157Z,80.60
2018-09-20T01:01:51.606Z,80.60
2018-09-20T01:04:19.983Z,80.60
2018-09-20T01:06:48.400Z,80.60
2018-09-20T01:09:17.407Z,80.60
2018-09-20T01:11:45.871Z,80.80
2018-09-20T01:14:14.253Z,80.80
2018-09-20T01:16:42.673Z,81.20
2018-09-20T01:19:12.035Z,81.20
2018-09-20T01:21:41.351Z,81.50
2018-09-20T01:24:09.737Z,81.60
2018-09-20T01:26:38.187Z,82.00
2018-09-20T01:29:06.571Z,82.20
2018-09-20T01:31:35.082Z,82.40
2018-09-20T01:34:03.744Z,82.60
2018-09-20T01:36:32.216Z,82.60
2018-09-20T01:39:00.630Z,82.70
2018-09-20T01:41:29.543Z,82.80
2018-09-20T01:43:57.928Z,82.90
2018-09-20T01:46:26.383Z,83.00
2018-09-20T01:48:54.744Z,83.10
2018-09-20T01:51:23.946Z,83.30
2018-09-20T01:53:52.421Z,83.40
2018-09-20T01:56:20.844Z,83.50
2018-09-20T01:58:49.326Z,83.50
2018-09-20T02:01:18.625Z,83.50
2018-09-20T02:03:47.969Z,83.60
2018-09-20T02:06:16.467Z,83.50
2018-09-20T02:08:45.664Z,83.50
2018-09-20T02:11:14.164Z,83.50
2018-09-20T02:13:43.144Z,83.50
2018-09-20T02:16:11.597Z,84.10
2018-09-20T02:18:40.015Z,84.40
2018-09-20T02:21:08.777Z,84.70
2018-09-20T02:23:37.152Z,84.90
2018-09-20T02:26:05.605Z,85.00
2018-09-20T02:28:34.945Z,85.10
2018-09-20T02:31:03.413Z,85.20
2018-09-20T02:33:31.816Z,85.40
2018-09-20T02:36:00.281Z,85.50
2018-09-20T02:38:28.717Z,85.50
2018-09-20T02:40:57.280Z,85.60
2018-09-20T02:43:25.747Z,85.60
2018-09-20T02:45:54.302Z,85.50
2018-09-20T02:48:22.749Z,85.70
2018-09-20T02:50:51.800Z,85.90
2018-09-20T02:53:20.749Z,86.00
2018-09-20T02:55:49.200Z,86.10
2018-09-20T02:58:17.890Z,85.90
2018-09-20T03:00:46.375Z,86.30
2018-09-20T03:03:14.825Z,86.80
2018-09-20T03:05:43.270Z,86.90
2018-09-20T03:08:11.711Z,87.10
2018-09-20T03:13:33.899Z,87.30
2018-09-20T03:16:03.200Z,87.50
2018-09-20T03:18:31.621Z,87.60
2018-09-20T03:21:00.116Z,87.80
2018-09-20T03:23:28.625Z,87.60
2018-09-20T03:25:57.077Z,87.90
2018-09-20T03:28:26.195Z,88.20
2018-09-20T03:30:55.073Z,87.80
2018-09-20T03:33:23.537Z,87.80
2018-09-20T03:35:51.975Z,87.90
2018-09-20T03:38:20.341Z,87.80
2018-09-20T03:40:48.782Z,88.10
2018-09-20T03:43:17.183Z,88.40
2018-09-20T03:45:45.596Z,88.50
2018-09-20T03:48:14.922Z,88.60
2018-09-20T03:50:43.871Z,88.80
2018-09-20T03:53:12.490Z,88.90
2018-09-20T03:55:40.936Z,89.00
2018-09-20T03:58:09.391Z,88.70
2018-09-20T04:00:38.247Z,88.70
2018-09-20T04:03:06.931Z,88.70
2018-09-20T04:05:35.334Z,88.80
2018-09-20T04:08:04.374Z,88.80
2018-09-20T04:10:33.742Z,88.80
2018-09-20T04:13:02.240Z,88.80
2018-09-20T04:15:30.633Z,89.10
2018-09-20T04:17:58.980Z,89.40
2018-09-20T04:20:27.329Z,89.30
2018-09-20T04:22:55.729Z,89.70
2018-09-20T04:25:24.433Z,89.80
2018-09-20T04:27:53.101Z,89.70
2018-09-20T04:30:21.417Z,89.40
2018-09-20T04:32:49.780Z,89.40
2018-09-20T04:35:20.233Z,89.50
2018-09-20T04:37:51.452Z,89.50
2018-09-20T04:40:19.919Z,89.50
2018-09-20T04:42:48.332Z,89.60
2018-09-20T04:45:16.760Z,89.80
2018-09-20T04:47:45.782Z,89.60
2018-09-20T04:50:14.319Z,89.50
2018-09-20T04:52:42.734Z,89.90
2018-09-20T04:55:11.238Z,90.30
2018-09-20T04:57:40.269Z,90.60
2018-09-20T05:00:08.692Z,90.70
2018-09-20T05:02:37.081Z,90.80
2018-09-20T05:05:11.785Z,90.70
2018-09-20T05:07:40.497Z,90.70
2018-09-20T05:10:09.154Z,90.70
2018-09-20T05:12:37.964Z,90.60
2018-09-20T05:15:06.405Z,90.90
2018-09-20T05:17:35.056Z,91.10
2018-09-20T05:20:03.613Z,91.20
2018-09-20T05:22:32.017Z,91.20
2018-09-20T05:30:30.503Z,91.00
2018-09-20T05:32:59.004Z,91.10
2018-09-20T05:35:28.816Z,91.00
2018-09-20T05:37:57.312Z,91.00
2018-09-20T05:40:25.798Z,91.10
2018-09-20T05:42:54.204Z,91.10
2018-09-20T05:45:22.841Z,91.00
2018-09-20T05:47:51.283Z,90.90
2018-09-20T05:50:19.724Z,91.00
2018-09-20T05:52:48.130Z,91.10
2018-09-20T05:55:16.533Z,91.10
2018-09-20T05:57:45.079Z,91.40
2018-09-20T06:00:13.536Z,91.50
2018-09-20T06:02:42.028Z,91.60
2018-09-20T06:05:15.756Z,91.80
2018-09-20T06:07:45.291Z,91.80
2018-09-20T06:10:13.719Z,91.80
2018-09-20T06:12:42.069Z,91.70
2018-09-20T06:15:10.524Z,91.70
2018-09-20T06:17:38.908Z,91.90
2018-09-20T06:20:07.629Z,91.80
2018-09-20T06:22:36.125Z,92.10
2018-09-20T06:25:04.673Z,92.10
2018-09-20T06:27:33.167Z,92.30
2018-09-20T06:30:01.561Z,92.30
2018-09-20T06:32:31.106Z,92.30
2018-09-20T06:35:01.889Z,92.20
2018-09-20T06:37:30.315Z,92.50
2018-09-20T06:39:58.898Z,92.50
2018-09-20T06:42:29.081Z,92.60
2018-09-20T06:44:57.577Z,92.60
2018-09-20T06:47:26.688Z,92.50
2018-09-20T06:49:55.080Z,92.50
2018-09-20T06:52:23.489Z,92.10
2018-09-20T06:54:51.992Z,91.90
2018-09-20T06:57:20.412Z,91.70
2018-09-20T06:59:48.873Z,91.60
2018-09-20T07:02:17.260Z,91.50
2018-09-20T07:04:46.581Z,91.20
2018-09-20T07:07:15.022Z,90.50
2018-09-20T07:09:43.502Z,90.30
2018-09-20T07:12:11.931Z,90.00
2018-09-20T07:14:40.394Z,89.30
2018-09-20T07:17:08.828Z,88.70
2018-09-20T07:19:37.249Z,88.50
2018-09-20T07:22:06.482Z,88.20
2018-09-20T07:24:34.884Z,87.90
2018-09-20T07:27:03.288Z,87.70
2018-09-20T07:29:32.095Z,87.30
2018-09-20T07:32:01.630Z,86.80
2018-09-20T07:34:30.108Z,86.70
2018-09-20T07:36:58.507Z,86.20
2018-09-20T07:39:26.877Z,86.00
2018-09-20T07:41:55.382Z,85.90
2018-09-20T07:44:23.893Z,85.50
2018-09-20T07:46:52.313Z,85.20
2018-09-20T07:49:20.927Z,84.40
2018-09-20T07:51:49.397Z,84.10
2018-09-20T07:54:17.743Z,83.70
2018-09-20T07:56:46.235Z,83.50
2018-09-20T07:59:14.566Z,83.00
2018-09-20T08:01:43.061Z,82.70
2018-09-20T08:04:11.651Z,82.40
2018-09-20T08:06:40.508Z,82.40
2018-09-20T08:09:11.025Z,81.60
2018-09-20T08:11:39.503Z,81.20
2018-09-20T08:14:07.988Z,80.30
2018-09-20T08:16:36.372Z,79.40
2018-09-20T08:19:04.808Z,79.20
2018-09-20T08:21:33.478Z,78.50
2018-09-20T08:24:02.574Z,77.60
2018-09-20T08:26:30.994Z,76.50
2018-09-20T08:28:59.393Z,75.60
2018-09-20T08:31:27.859Z,75.20
2018-09-20T08:33:56.290Z,74.90
2018-09-20T08:36:24.792Z,74.30
2018-09-20T08:38:53.485Z,73.70
2018-09-20T08:41:22.752Z,73.50
2018-09-20T08:43:51.162Z,73.30
2018-09-20T08:46:19.626Z,73.20
2018-09-20T08:48:48.115Z,72.50
2018-09-20T08:51:16.542Z,72.10
2018-09-20T08:53:44.930Z,71.90
2018-09-20T08:56:13.499Z,71.70
2018-09-20T08:58:42.013Z,71.10
2018-09-20T09:01:10.382Z,71.10
2018-09-20T09:03:38.859Z,69.90
2018-09-20T09:06:07.351Z,69.50
2018-09-20T09:08:35.812Z,69.20
2018-09-20T09:11:04.285Z,69.00
2018-09-20T09:13:32.872Z,68.80
2018-09-20T09:16:01.276Z,67.40
2018-09-20T09:18:29.708Z,66.50
2018-09-20T09:20:58.137Z,64.80
2018-09-20T09:23:26.506Z,64.40
2018-09-20T09:25:54.915Z,63.90
2018-09-20T09:28:23.370Z,64.10
2018-09-20T09:30:51.863Z,63.80
2018-09-20T09:33:20.630Z,63.10
2018-09-20T09:35:49.730Z,62.50
2018-09-20T09:38:18.282Z,62.20
2018-09-20T09:40:46.796Z,61.70
2018-09-20T09:43:15.082Z,61.60
2018-09-20T09:45:43.485Z,61.50
2018-09-20T09:48:11.950Z,61.30
2018-09-20T09:50:40.679Z,60.60
2018-09-20T09:53:09.195Z,59.90
2018-09-20T09:55:37.677Z,60.30
2018-09-20T09:58:06.213Z,60.30
2018-09-20T10:00:36.518Z,60.80
2018-09-20T10:03:04.913Z,61.10
2018-09-20T10:05:33.383Z,60.30
2018-09-20T10:08:01.833Z,60.20
2018-09-20T10:10:30.372Z,59.90
2018-09-20T10:12:58.789Z,59.30
2018-09-20T10:15:27.202Z,58.90
2018-09-20T10:17:55.581Z,59.30
2018-09-20T10:20:24.034Z,58.70
2018-09-20T10:22:52.551Z,58.90
2018-09-20T10:25:20.982Z,58.40
2018-09-20T10:27:49.374Z,58.50
2018-09-20T10:30:17.880Z,58.10
2018-09-20T10:32:46.281Z,58.60
2018-09-20T10:35:14.696Z,57.30
2018-09-20T10:37:43.193Z,57.20
2018-09-20T10:40:11.619Z,56.80
2018-09-20T10:42:40.015Z,55.40
2018-09-20T10:45:08.454Z,55.20
2018-09-20T10:47:36.915Z,55.00
2018-09-20T10:50:05.496Z,54.70
2018-09-20T10:52:33.990Z,55.00
2018-09-20T10:55:02.477Z,54.80
2018-09-20T10:57:30.933Z,54.30
2018-09-20T10:59:59.293Z,54.50
2018-09-20T11:02:27.726Z,54.20
2018-09-20T11:04:56.873Z,54.50
2018-09-20T11:07:25.295Z,53.80
2018-09-20T11:09:53.744Z,53.00
2018-09-20T11:12:22.141Z,53.40
2018-09-20T11:14:50.552Z,53.10
2018-09-20T11:17:18.950Z,53.10
2018-09-20T11:19:47.303Z,52.90
2018-09-20T11:22:15.681Z,52.70
2018-09-20T11:24:44.057Z,50.90
2018-09-20T11:27:12.518Z,49.90
2018-09-20T11:29:40.905Z,46.80
2018-09-20T11:32:09.339Z,42.70
2018-09-20T11:34:37.851Z,39.20
2018-09-20T11:37:06.252Z,35.90
2018-09-20T11:39:34.667Z,34.60
2018-09-20T11:42:03.034Z,34.00
2018-09-20T11:44:31.391Z,33.00
2018-09-20T11:46:59.833Z,31.60
2018-09-20T11:49:28.360Z,31.50
2018-09-20T11:51:56.771Z,31.30
2018-09-20T11:54:25.224Z,30.90
2018-09-20T11:56:53.659Z,30.20
2018-09-20T11:59:22.076Z,30.60
2018-09-20T12:01:50.504Z,30.10
2018-09-20T12:04:18.881Z,30.70
2018-09-20T12:06:47.371Z,30.40
2018-09-20T12:09:16.641Z,29.40
2018-09-20T12:11:45.143Z,30.40
2018-09-20T12:14:13.642Z,31.70
2018-09-20T12:16:42.115Z,32.20
2018-09-20T12:19:10.589Z,30.70
2018-09-20T12:21:38.981Z,29.20
2018-09-20T12:24:07.498Z,28.40
2018-09-20T12:26:35.948Z,28.20
2018-09-20T12:29:04.335Z,28.10
2018-09-20T12:31:32.878Z,28.00
2018-09-20T12:34:01.296Z,27.20
2018-09-20T12:36:29.728Z,26.70
2018-09-20T12:38:58.250Z,26.10
2018-09-20T12:41:26.620Z,26.10
2018-09-20T12:43:55.646Z,25.20
2018-09-20T12:46:24.079Z,25.00
2018-09-20T12:48:52.604Z,24.40
2018-09-20T12:51:21.014Z,25.80
2018-09-20T12:53:49.436Z,27.40
2018-09-20T12:56:18.156Z,29.30
2018-09-20T12:58:49.401Z,30.90
2018-09-20T13:01:18.736Z,32.10
2018-09-20T13:03:47.363Z,32.40
2018-09-20T13:06:15.888Z,31.60
2018-09-20T13:08:44.261Z,30.90
2018-09-20T13:11:13.643Z,30.50
2018-09-20T13:13:42.313Z,31.10
2018-09-20T13:16:10.921Z,30.80
2018-09-20T13:18:39.375Z,32.80
2018-09-20T13:21:07.877Z,34.30
2018-09-20T13:23:36.324Z,35.50
2018-09-20T13:26:04.765Z,36.70
2018-09-20T13:28:33.204Z,37.10
2018-09-20T13:31:01.712Z,37.20
2018-09-20T13:33:30.085Z,37.50
2018-09-20T13:35:58.520Z,38.20
2018-09-20T13:38:26.954Z,38.10
2018-09-20T13:40:55.512Z,37.90
2018-09-20T13:43:23.968Z,38.30
2018-09-20T13:45:52.714Z,37.60
2018-09-20T13:48:21.234Z,37.90
2018-09-20T13:50:49.642Z,38.90
2018-09-20T13:53:18.116Z,39.30
2018-09-20T13:55:46.538Z,39.10
2018-09-20T13:58:15.209Z,38.50
2018-09-20T14:00:43.669Z,38.60
2018-09-20T14:03:12.111Z,38.50
2018-09-20T14:05:40.560Z,38.30
2018-09-20T14:08:09.036Z,38.60
2018-09-20T14:10:37.513Z,39.00
2018-09-20T14:13:05.965Z,39.50
2018-09-20T14:15:34.491Z,40.50
2018-09-20T14:18:02.903Z,40.60
2018-09-20T14:20:32.260Z,40.40
2018-09-20T14:23:00.774Z,40.50
2018-09-20T14:25:29.211Z,40.40
2018-09-20T14:27:57.666Z,41.10
2018-09-20T14:30:26.133Z,40.80
2018-09-20T14:32:54.661Z,39.90
2018-09-20T14:35:23.128Z,39.60
2018-09-20T14:37:51.540Z,40.30
2018-09-20T14:40:19.968Z,40.70
2018-09-20T14:42:48.420Z,41.00
2018-09-20T14:45:16.846Z,41.30
2018-09-20T14:47:45.274Z,41.20
2018-09-20T14:50:13.722Z,41.20
2018-09-20T14:52:42.287Z,41.40
2018-09-20T14:55:10.698Z,40.70
2018-09-20T14:57:39.083Z,40.70
2018-09-20T15:00:07.520Z,40.70
2018-09-20T15:02:35.952Z,40.80
2018-09-20T15:05:04.496Z,40.90
2018-09-20T15:07:32.972Z,41.00
2018-09-20T15:10:01.341Z,40.50
2018-09-20T15:12:29.807Z,39.20
2018-09-20T15:14:58.342Z,38.10
2018-09-20T15:17:26.722Z,37.90
2018-09-20T15:19:55.082Z,38.50
2018-09-20T15:22:23.499Z,39.40
2018-09-20T15:24:51.981Z,40.20
2018-09-20T15:27:20.368Z,40.60
2018-09-20T15:29:49.733Z,40.40
2018-09-20T15:32:18.100Z,39.50
2018-09-20T15:34:46.496Z,40.30
2018-09-20T15:37:14.908Z,41.10
2018-09-20T15:39:43.337Z,41.90
2018-09-20T15:42:11.742Z,42.50
2018-09-20T15:44:40.201Z,43.30
2018-09-20T15:47:09.637Z,44.20
2018-09-20T15:49:38.757Z,44.60
2018-09-20T15:52:07.888Z,44.80
2018-09-20T15:54:36.302Z,45.20
2018-09-20T15:57:04.821Z,45.20
2018-09-20T15:59:33.226Z,45.50
2018-09-20T16:02:01.700Z,45.10
2018-09-20T16:04:30.122Z,45.10
2018-09-20T16:06:58.481Z,45.20
2018-09-20T16:09:26.882Z,45.60
2018-09-20T16:11:55.299Z,45.90
2018-09-20T16:14:23.748Z,46.40
2018-09-20T16:16:52.213Z,47.00
2018-09-20T16:19:20.777Z,47.30
2018-09-20T16:21:49.200Z,47.60
2018-09-20T16:24:17.604Z,47.90
2018-09-20T16:26:46.024Z,48.40
2018-09-20T16:29:27.854Z,48.60
2018-09-20T16:34:09.457Z,48.90
2018-09-20T16:36:54.047Z,49.70
2018-09-20T16:39:24.305Z,49.60
2018-09-20T16:41:56.066Z,49.90
2018-09-20T16:44:25.421Z,50.60
2018-09-20T16:46:53.837Z,51.60
2018-09-20T16:49:22.203Z,51.30
2018-09-20T16:51:50.594Z,52.20
2018-09-20T16:54:19.554Z,52.60
2018-09-20T16:56:48.038Z,53.50
2018-09-20T16:59:17.288Z,54.30
2018-09-20T17:01:45.728Z,53.90
2018-09-20T17:04:14.127Z,54.10
2018-09-20T17:06:42.556Z,54.80
2018-09-20T17:09:10.903Z,54.90
2018-09-20T17:11:39.342Z,55.50
2018-09-20T17:14:07.739Z,55.70
2018-09-20T17:16:36.170Z,55.60
2018-09-20T17:19:05.496Z,55.70
2018-09-20T17:21:33.996Z,56.30
2018-09-20T17:24:02.607Z,56.30
2018-09-20T17:26:31.155Z,56.70
2018-09-20T17:28:59.917Z,56.70
2018-09-20T17:31:29.597Z,57.60
2018-09-20T17:33:58.215Z,58.20
2018-09-20T17:36:28.239Z,58.20
2018-09-20T17:38:57.883Z,58.20
2018-09-20T17:41:30.536Z,58.60
2018-09-20T17:44:02.128Z,59.00
2018-09-20T17:46:30.865Z,59.20
2018-09-20T17:48:59.606Z,59.20
2018-09-20T17:51:29.187Z,59.60
2018-09-20T17:54:00.959Z,60.20
2018-09-20T17:56:29.890Z,60.50
2018-09-20T17:58:58.841Z,60.70
2018-09-20T18:01:27.246Z,60.70
2018-09-20T18:03:55.795Z,60.90
2018-09-20T18:06:24.255Z,61.20
2018-09-20T18:08:52.773Z,61.20
2018-09-20T18:11:21.278Z,61.50
2018-09-20T18:13:49.740Z,61.70
2018-09-20T18:16:18.279Z,61.90
2018-09-20T18:18:48.712Z,62.20
2018-09-20T18:21:17.951Z,62.10
2018-09-20T18:23:58.290Z,62.60
2018-09-20T18:26:26.658Z,62.80
2018-09-20T18:28:55.093Z,63.10
2018-09-20T18:31:23.600Z,63.10
2018-09-20T18:33:52.022Z,63.40
2018-09-20T18:36:20.537Z,63.70
2018-09-20T18:38:49.641Z,64.10
2018-09-20T18:41:18.118Z,64.20
2018-09-20T18:43:47.151Z,64.50
2018-09-20T18:46:15.627Z,64.60
2018-09-20T18:48:44.609Z,64.80
2018-09-20T18:51:13.178Z,64.70
2018-09-20T18:53:41.678Z,64.70
2018-09-20T18:56:10.092Z,64.80
2018-09-20T18:58:38.708Z,65.00
2018-09-20T19:01:07.323Z,65.00
2018-09-20T19:03:35.737Z,65.20
2018-09-20T19:06:04.275Z,65.30
2018-09-20T19:08:33.417Z,65.20
2018-09-20T19:11:02.256Z,65.20
2018-09-20T19:13:30.671Z,65.30
2018-09-20T19:15:59.167Z,65.60
2018-09-20T19:18:27.615Z,65.70
2018-09-20T19:20:56.085Z,65.90
2018-09-20T19:23:25.472Z,65.90
2018-09-20T19:25:53.916Z,65.80
2018-09-20T19:28:25.133Z,65.90
2018-09-20T19:31:05.351Z,65.80
2018-09-20T19:33:36.658Z,65.90
2018-09-20T19:36:09.256Z,66.30
2018-09-20T19:38:40.187Z,66.50
2018-09-20T19:41:08.685Z,66.80
2018-09-20T19:43:37.992Z,67.00
2018-09-20T19:46:07.200Z,67.00
2018-09-20T19:48:35.562Z,67.00
2018-09-20T19:51:04.051Z,67.00
2018-09-20T19:53:33.261Z,66.80
2018-09-20T19:56:01.930Z,66.90
2018-09-20T19:58:31.621Z,67.00
2018-09-20T20:01:00.152Z,67.10
2018-09-20T20:03:28.669Z,67.10
2018-09-20T20:05:57.180Z,67.30
2018-09-20T20:08:25.632Z,67.50
2018-09-20T20:10:55.545Z,67.90
2018-09-20T20:13:24.548Z,68.00
2018-09-20T20:15:54.659Z,68.10
2018-09-20T20:18:23.616Z,68.10
2018-09-20T20:20:52.124Z,68.20
2018-09-20T20:23:23.290Z,68.30
2018-09-20T20:28:26.314Z,68.40
2018-09-20T20:30:55.428Z,68.50
2018-09-20T20:33:24.029Z,68.50
2018-09-20T20:35:55.141Z,68.60
2018-09-20T20:38:36.897Z,68.70
2018-09-20T20:41:05.448Z,68.90
2018-09-20T20:43:34.032Z,69.20
2018-09-20T20:46:03.084Z,69.10
2018-09-20T20:48:31.573Z,69.30
2018-09-20T20:51:00.189Z,69.40
2018-09-20T20:53:28.568Z,69.60
2018-09-20T20:55:57.882Z,69.80
2018-09-20T20:58:26.467Z,69.90
2018-09-20T21:00:54.960Z,70.00
2018-09-20T21:03:23.427Z,70.10
2018-09-20T21:05:51.872Z,70.10
2018-09-20T21:08:20.316Z,70.10
2018-09-20T21:10:48.717Z,70.20
2018-09-20T21:13:17.087Z,70.70
2018-09-20T21:15:46.412Z,71.00
2018-09-20T21:18:14.833Z,71.10
2018-09-20T21:23:29.185Z,71.30
2018-09-20T21:25:58.302Z,71.40
2018-09-20T21:28:26.770Z,71.60
2018-09-20T21:30:55.247Z,71.90
2018-09-20T21:33:23.730Z,71.90
2018-09-20T21:35:52.112Z,71.90
2018-09-20T21:38:20.556Z,72.00
2018-09-20T21:40:49.031Z,72.30
2018-09-20T21:43:17.447Z,72.30
2018-09-20T21:45:45.832Z,72.50
2018-09-20T21:48:14.813Z,72.70
2018-09-20T21:50:43.272Z,72.60
2018-09-20T21:53:12.299Z,72.90
2018-09-20T21:55:40.791Z,73.20
2018-09-20T21:58:09.279Z,73.00
2018-09-20T22:00:37.813Z,73.00
2018-09-20T22:03:06.196Z,73.40
2018-09-20T22:05:35.362Z,73.70
2018-09-20T22:08:03.828Z,74.10
2018-09-20T22:10:32.615Z,74.50
2018-09-20T22:13:01.645Z,74.70
2018-09-20T22:15:30.616Z,74.80
2018-09-20T22:17:59.497Z,74.90
2018-09-20T22:20:29.225Z,75.10
2018-09-20T22:22:58.563Z,75.10
2018-09-20T22:25:26.958Z,75.10
2018-09-20T22:27:55.768Z,75.40
2018-09-20T22:30:25.935Z,75.60
2018-09-20T22:32:54.446Z,75.70
2018-09-20T22:35:22.944Z,75.60
2018-09-20T22:37:51.438Z,75.70
2018-09-20T22:40:19.825Z,75.90
2018-09-20T22:42:48.229Z,76.20
2018-09-20T22:45:16.677Z,76.30
2018-09-20T22:47:45.075Z,76.10
2018-09-20T22:50:13.509Z,76.30
2018-09-20T22:52:41.943Z,76.30
2018-09-20T22:55:10.409Z,76.60
2018-09-20T22:57:38.801Z,76.80
2018-09-20T23:00:07.341Z,76.80
2018-09-20T23:02:35.745Z,76.80
2018-09-20T23:05:04.351Z,77.00
2018-09-20T23:07:32.809Z,77.30
2018-09-20T23:10:01.241Z,77.40
2018-09-20T23:12:30.492Z,77.50
2018-09-20T23:14:58.912Z,77.50
2018-09-20T23:17:28.384Z,77.70
2018-09-20T23:19:56.793Z,77.90
2018-09-20T23:22:27.848Z,78.30
2018-09-20T23:24:56.347Z,78.40
2018-09-20T23:27:24.803Z,78.30
2018-09-20T23:29:53.272Z,78.30
2018-09-20T23:32:21.657Z,78.60
2018-09-20T23:34:50.024Z,78.80
2018-09-20T23:37:18.463Z,78.90
2018-09-20T23:39:46.856Z,78.80
2018-09-20T23:42:15.237Z,78.80
2018-09-20T23:44:44.313Z,78.80
2018-09-20T23:47:12.705Z,78.80
2018-09-20T23:49:41.093Z,78.70
2018-09-20T23:52:09.497Z,78.60
2018-09-20T23:54:38.532Z,78.80
2018-09-20T23:57:07.277Z,79.00
2018-09-20T23:59:35.675Z,79.10
